createdAt,value
2022-12-07T00:01:47.367Z,35.00
2022-12-07T00:04:17.777Z,30.30
2022-12-07T00:06:48.558Z,34.38
2022-12-07T00:09:18.107Z,34.42
2022-12-07T00:11:47.462Z,33.15
2022-12-07T00:14:17.357Z,33.75
2022-12-07T00:16:46.808Z,32.28
2022-12-07T00:19:16.366Z,34.50
2022-12-07T00:21:45.235Z,36.25
2022-12-07T00:24:14.852Z,34.67
2022-12-07T00:26:44.695Z,37.05
2022-12-07T00:29:21.301Z,36.42
2022-12-07T00:31:50.651Z,41.83
2022-12-07T00:34:21.723Z,39.05
2022-12-07T00:36:50.545Z,43.67
2022-12-07T00:39:19.852Z,46.70
2022-12-07T00:41:48.911Z,45.55
2022-12-07T00:44:18.105Z,46.20
2022-12-07T00:46:47.711Z,53.65
2022-12-07T00:49:17.096Z,48.67
2022-12-07T00:51:45.890Z,49.63
2022-12-07T00:54:14.698Z,50.75
2022-12-07T00:56:43.867Z,45.38
2022-12-07T00:59:14.521Z,50.83
2022-12-07T01:01:43.990Z,51.15
2022-12-07T01:04:13.352Z,47.30
2022-12-07T01:06:42.216Z,48.55
2022-12-07T01:09:11.404Z,51.22
2022-12-07T01:11:40.618Z,48.25
2022-12-07T01:14:09.924Z,49.00
2022-12-07T01:16:39.990Z,54.13
2022-12-07T01:19:09.476Z,48.50
2022-12-07T01:21:42.318Z,49.30
2022-12-07T01:24:12.572Z,31.50
2022-12-07T01:26:41.953Z,33.70
2022-12-07T01:29:11.293Z,34.83
2022-12-07T01:31:40.676Z,37.63
2022-12-07T01:34:10.738Z,32.08
2022-12-07T01:36:40.317Z,31.73
2022-12-07T01:39:09.784Z,33.58
2022-12-07T01:41:44.991Z,35.17
2022-12-07T01:44:27.218Z,30.15
2022-12-07T01:46:58.102Z,31.90
2022-12-07T01:49:49.181Z,32.95
2022-12-07T01:52:26.855Z,32.58
2022-12-07T01:54:59.148Z,42.90
2022-12-07T01:57:28.618Z,38.33
2022-12-07T01:59:58.097Z,32.53
2022-12-07T02:03:06.425Z,35.90
2022-12-07T02:05:36.661Z,33.33
2022-12-07T02:08:05.790Z,34.75
2022-12-07T02:10:42.368Z,33.50
2022-12-07T02:13:19.392Z,39.47
2022-12-07T02:16:07.677Z,37.75
2022-12-07T02:19:03.800Z,32.97
2022-12-07T02:21:57.720Z,27.85
2022-12-07T02:24:45.488Z,34.35
2022-12-07T02:27:39.240Z,32.35
2022-12-07T02:32:40.096Z,32.58
2022-12-07T02:35:12.734Z,29.63
2022-12-07T02:37:50.840Z,31.38
2022-12-07T02:40:56.911Z,34.00
2022-12-07T02:43:30.196Z,28.90
2022-12-07T02:46:02.599Z,32.55
2022-12-07T02:48:31.541Z,32.05
2022-12-07T02:51:00.302Z,32.20
2022-12-07T02:53:37.072Z,35.10
2022-12-07T02:56:33.071Z,41.80
2022-12-07T02:59:20.903Z,34.15
2022-12-07T03:02:11.444Z,38.25
2022-12-07T03:04:52.156Z,42.53
2022-12-07T03:07:27.269Z,42.67
2022-12-07T03:10:03.254Z,40.28
2022-12-07T03:13:04.668Z,38.75
2022-12-07T03:15:42.411Z,40.75
2022-12-07T03:18:13.910Z,38.40
2022-12-07T03:20:44.282Z,39.88
2022-12-07T03:23:14.473Z,39.95
2022-12-07T03:25:47.507Z,28.35
2022-12-07T03:28:18.290Z,55.55
2022-12-07T03:30:58.679Z,55.33
2022-12-07T03:33:58.640Z,56.47
2022-12-07T03:36:56.010Z,55.50
2022-12-07T03:39:27.122Z,58.58
2022-12-07T03:41:56.794Z,58.67
2022-12-07T03:44:26.084Z,55.97
2022-12-07T03:46:58.639Z,57.72
2022-12-07T03:49:33.877Z,57.03
2022-12-07T03:52:13.994Z,50.63
2022-12-07T03:55:01.239Z,52.92
2022-12-07T03:57:30.690Z,53.10
2022-12-07T04:00:00.070Z,51.63
2022-12-07T04:02:30.306Z,50.80
2022-12-07T04:04:59.243Z,54.05
2022-12-07T04:07:28.684Z,56.50
2022-12-07T04:09:58.167Z,49.58
2022-12-07T04:12:27.407Z,50.92
2022-12-07T04:14:56.355Z,50.08
2022-12-07T04:17:25.598Z,51.03
2022-12-07T04:19:54.496Z,53.80
2022-12-07T04:22:23.934Z,51.97
2022-12-07T04:24:53.594Z,55.33
2022-12-07T04:27:22.415Z,53.47
2022-12-07T04:29:51.651Z,56.17
2022-12-07T04:32:20.577Z,57.75
2022-12-07T04:34:55.191Z,55.38
2022-12-07T04:37:25.202Z,53.95
2022-12-07T04:39:54.596Z,49.70
2022-12-07T04:42:24.392Z,47.80
2022-12-07T04:44:53.695Z,46.85
2022-12-07T04:47:22.807Z,52.47
2022-12-07T04:49:52.115Z,48.60
2022-12-07T04:52:21.764Z,49.97
2022-12-07T04:54:51.174Z,43.85
2022-12-07T04:57:19.931Z,47.38
2022-12-07T04:59:49.148Z,41.60
2022-12-07T05:02:18.077Z,39.53
2022-12-07T05:04:46.868Z,40.72
2022-12-07T05:07:16.040Z,40.42
2022-12-07T05:09:45.363Z,36.45
2022-12-07T05:12:14.794Z,40.53
2022-12-07T05:14:44.174Z,40.92
2022-12-07T05:17:14.207Z,42.70
2022-12-07T05:19:43.167Z,35.05
2022-12-07T05:22:12.944Z,35.90
2022-12-07T05:24:45.423Z,30.70
2022-12-07T05:27:14.920Z,30.25
2022-12-07T05:29:43.824Z,26.65
2022-12-07T05:32:12.757Z,26.30
2022-12-07T05:34:41.651Z,20.30
2022-12-07T05:37:17.267Z,17.95
2022-12-07T05:42:16.351Z,13.50
2022-12-07T05:44:46.689Z,12.88
2022-12-07T05:47:15.953Z,11.68
2022-12-07T05:49:48.247Z,10.45
2022-12-07T05:52:17.852Z,9.98
2022-12-07T05:54:50.085Z,10.77
2022-12-07T05:57:19.323Z,7.65
2022-12-07T05:59:48.266Z,6.65
2022-12-07T06:02:19.607Z,5.07
2022-12-07T06:04:57.909Z,6.75
2022-12-07T06:07:26.931Z,6.43
2022-12-07T06:09:56.667Z,5.57
2022-12-07T06:12:39.941Z,5.32
2022-12-07T06:15:11.789Z,3.85
2022-12-07T06:17:41.545Z,5.43
2022-12-07T06:20:11.068Z,3.85
2022-12-07T06:22:40.713Z,4.15
2022-12-07T06:25:10.412Z,4.20
2022-12-07T06:27:39.151Z,4.70
2022-12-07T06:30:10.700Z,4.65
2022-12-07T06:32:40.022Z,4.25
2022-12-07T06:35:09.831Z,5.47
2022-12-07T06:37:39.362Z,5.40
2022-12-07T06:40:09.686Z,5.85
2022-12-07T06:42:38.824Z,4.97
2022-12-07T06:45:08.597Z,6.05
2022-12-07T06:47:43.203Z,7.32
2022-12-07T06:50:16.723Z,4.70
2022-12-07T06:52:45.479Z,16.33
2022-12-07T06:55:14.311Z,14.25
2022-12-07T06:57:43.727Z,14.00
2022-12-07T07:00:19.889Z,7.22
2022-12-07T07:02:51.343Z,8.70
2022-12-07T07:05:23.628Z,4.72
2022-12-07T07:08:20.854Z,5.43
2022-12-07T07:10:42.100Z,7.70
2022-12-07T07:13:15.448Z,5.70
2022-12-07T07:15:45.435Z,6.43
2022-12-07T07:18:17.754Z,6.85
2022-12-07T07:20:46.794Z,10.57
2022-12-07T07:23:16.090Z,6.30
2022-12-07T07:25:47.009Z,8.02
2022-12-07T07:28:19.343Z,6.57
2022-12-07T07:30:48.896Z,5.03
2022-12-07T07:33:20.056Z,8.70
2022-12-07T07:35:49.583Z,6.90
2022-12-07T07:38:18.868Z,4.00
2022-12-07T07:40:47.895Z,4.63
2022-12-07T07:43:23.440Z,5.97
2022-12-07T07:45:52.599Z,4.78
2022-12-07T07:48:21.915Z,6.43
2022-12-07T07:50:51.160Z,3.55
2022-12-07T07:53:20.112Z,5.80
2022-12-07T07:55:56.314Z,5.20
2022-12-07T07:58:25.645Z,2.97
2022-12-07T08:00:55.282Z,2.83
2022-12-07T08:03:24.605Z,2.85
2022-12-07T08:06:13.177Z,2.15
2022-12-07T08:08:43.779Z,2.40
2022-12-07T08:11:13.708Z,2.33
2022-12-07T08:13:42.649Z,3.38
2022-12-07T08:16:12.961Z,1.60
2022-12-07T08:18:42.752Z,2.20
2022-12-07T08:21:15.868Z,1.45
2022-12-07T08:23:45.117Z,1.90
2022-12-07T08:26:15.632Z,2.25
2022-12-07T08:28:46.954Z,1.98
2022-12-07T08:31:19.371Z,2.30
2022-12-07T08:33:49.297Z,2.72
2022-12-07T08:36:18.947Z,4.05
2022-12-07T08:39:22.455Z,2.85
2022-12-07T08:41:37.655Z,3.80
2022-12-07T08:44:07.032Z,3.92
2022-12-07T08:46:36.195Z,3.53
2022-12-07T08:49:17.558Z,3.97
2022-12-07T08:51:47.930Z,2.72
2022-12-07T08:54:18.401Z,2.78
2022-12-07T08:56:47.794Z,3.88
2022-12-07T08:59:17.420Z,3.70
2022-12-07T09:01:46.418Z,4.18
2022-12-07T09:04:18.352Z,3.63
2022-12-07T09:06:47.687Z,2.93
2022-12-07T09:09:16.809Z,3.50
2022-12-07T09:11:47.299Z,3.10
2022-12-07T09:14:16.875Z,5.18
2022-12-07T09:16:47.830Z,4.72
2022-12-07T09:19:16.954Z,5.20
2022-12-07T09:21:45.903Z,2.90
2022-12-07T09:24:15.745Z,4.20
2022-12-07T09:26:45.052Z,4.25
2022-12-07T09:29:14.014Z,4.90
2022-12-07T09:31:43.405Z,3.03
2022-12-07T09:34:12.701Z,6.25
2022-12-07T09:36:42.008Z,5.60
2022-12-07T09:39:11.185Z,4.03
2022-12-07T09:41:41.443Z,6.30
2022-12-07T09:44:14.810Z,7.43
2022-12-07T09:46:45.000Z,5.43
2022-12-07T09:49:18.993Z,6.22
2022-12-07T09:51:48.197Z,4.75
2022-12-07T09:54:17.813Z,3.90
2022-12-07T09:56:46.947Z,4.95
2022-12-07T09:59:19.846Z,3.65
2022-12-07T10:04:23.487Z,4.93
2022-12-07T10:06:53.404Z,3.90
2022-12-07T10:09:23.577Z,4.18
2022-12-07T10:12:11.575Z,7.43
2022-12-07T10:17:36.335Z,8.75
2022-12-07T10:20:28.562Z,9.00
2022-12-07T10:23:03.807Z,8.13
2022-12-07T10:25:35.576Z,10.00
2022-12-07T10:28:11.329Z,6.75
2022-12-07T10:31:04.882Z,7.85
2022-12-07T10:36:04.059Z,12.93
2022-12-07T10:38:34.571Z,11.35
2022-12-07T10:41:11.242Z,8.30
2022-12-07T10:43:45.860Z,13.43
2022-12-07T10:46:40.114Z,13.40
2022-12-07T10:49:32.934Z,11.95
2022-12-07T10:52:22.523Z,11.43
2022-12-07T10:55:01.108Z,12.95
2022-12-07T10:57:48.005Z,9.25
2022-12-07T11:00:27.802Z,13.30
2022-12-07T11:03:14.151Z,12.68
2022-12-07T11:06:00.658Z,13.57
2022-12-07T11:09:01.422Z,10.13
2022-12-07T11:11:55.941Z,9.95
2022-12-07T11:14:33.716Z,23.70
2022-12-07T11:17:52.148Z,30.38
2022-12-07T11:20:44.894Z,30.42
2022-12-07T11:23:25.670Z,30.33
2022-12-07T11:26:29.805Z,29.27
2022-12-07T11:29:34.270Z,30.77
2022-12-07T11:32:15.697Z,25.13
2022-12-07T11:35:10.125Z,25.45
2022-12-07T11:40:23.771Z,22.60
2022-12-07T11:43:19.952Z,24.65
2022-12-07T11:45:54.054Z,17.13
2022-12-07T11:48:27.820Z,20.35
2022-12-07T11:50:59.342Z,22.88
2022-12-07T11:53:36.577Z,20.60
2022-12-07T11:56:19.407Z,19.42
2022-12-07T11:59:02.273Z,24.05
2022-12-07T12:01:40.103Z,21.53
2022-12-07T12:04:11.746Z,22.10
2022-12-07T12:06:42.325Z,21.33
2022-12-07T12:15:43.746Z,19.98
2022-12-07T12:18:33.950Z,19.77
2022-12-07T12:21:16.734Z,22.55
2022-12-07T12:24:02.117Z,20.20
2022-12-07T12:26:33.474Z,25.73
2022-12-07T12:29:40.907Z,27.90
2022-12-07T12:32:18.243Z,28.55
2022-12-07T12:35:01.698Z,42.65
2022-12-07T12:40:17.597Z,51.45
2022-12-07T12:42:50.521Z,46.03
2022-12-07T12:45:23.940Z,47.50
2022-12-07T12:47:57.663Z,45.35
2022-12-07T12:50:30.950Z,52.05
2022-12-07T12:53:01.044Z,44.30
2022-12-07T12:56:05.030Z,43.70
2022-12-07T12:58:43.146Z,36.47
2022-12-07T13:01:44.469Z,36.92
2022-12-07T13:04:27.165Z,33.10
2022-12-07T13:06:56.540Z,35.80
2022-12-07T13:09:30.656Z,31.42
2022-12-07T13:12:07.527Z,26.90
2022-12-07T13:14:42.607Z,27.20
2022-12-07T13:17:33.150Z,30.63
2022-12-07T13:20:06.731Z,32.80
2022-12-07T13:22:40.145Z,31.90
2022-12-07T13:25:31.943Z,32.60
2022-12-07T13:28:19.386Z,45.38
2022-12-07T13:31:20.302Z,48.85
2022-12-07T13:33:50.512Z,37.78
2022-12-07T13:36:24.774Z,43.50
2022-12-07T13:38:56.402Z,40.53
2022-12-07T13:41:31.755Z,39.67
2022-12-07T13:44:12.169Z,42.80
2022-12-07T13:47:04.915Z,47.72
2022-12-07T13:49:38.677Z,46.88
2022-12-07T13:52:20.851Z,48.42
2022-12-07T13:54:57.206Z,48.35
2022-12-07T13:57:28.003Z,44.28
2022-12-07T13:59:56.853Z,43.75
2022-12-07T14:02:34.820Z,44.78
2022-12-07T14:05:15.272Z,52.20
2022-12-07T14:07:58.086Z,61.40
2022-12-07T14:10:35.171Z,58.88
2022-12-07T14:13:25.455Z,57.15
2022-12-07T14:15:56.258Z,54.05
2022-12-07T14:18:30.471Z,60.60
2022-12-07T14:21:20.230Z,58.83
2022-12-07T14:24:04.129Z,56.47
2022-12-07T14:26:35.742Z,57.67
2022-12-07T14:29:30.116Z,59.58
2022-12-07T14:32:00.449Z,49.33
2022-12-07T14:34:29.645Z,50.75
2022-12-07T14:36:58.899Z,47.38
2022-12-07T14:39:27.719Z,49.17
2022-12-07T14:41:57.062Z,44.92
2022-12-07T14:44:30.789Z,44.22
2022-12-07T14:49:52.854Z,45.30
2022-12-07T14:55:44.639Z,40.22
2022-12-07T14:58:16.621Z,39.50
2022-12-07T15:00:46.112Z,40.83
2022-12-07T15:03:15.775Z,32.08
2022-12-07T15:05:46.537Z,32.63
2022-12-07T15:08:16.413Z,33.42
2022-12-07T15:10:45.330Z,30.30
2022-12-07T15:13:33.360Z,32.47
2022-12-07T15:16:03.188Z,28.60
2022-12-07T15:18:33.972Z,28.88
2022-12-07T15:21:03.701Z,30.77
2022-12-07T15:23:34.763Z,28.48
2022-12-07T15:26:03.571Z,32.97
2022-12-07T15:28:32.530Z,32.28
2022-12-07T15:31:22.153Z,31.77
2022-12-07T15:33:50.699Z,33.72
2022-12-07T15:36:29.077Z,33.05
2022-12-07T15:39:13.819Z,37.78
2022-12-07T15:41:43.589Z,35.38
2022-12-07T15:44:34.392Z,38.38
2022-12-07T15:47:03.636Z,33.90
2022-12-07T15:49:32.824Z,33.38
2022-12-07T15:52:02.060Z,33.90
2022-12-07T15:54:31.560Z,32.55
2022-12-07T15:57:00.423Z,35.80
2022-12-07T15:59:30.213Z,30.58
2022-12-07T16:01:59.529Z,31.88
2022-12-07T16:04:31.065Z,35.50
2022-12-07T16:07:00.344Z,37.85
2022-12-07T16:09:29.698Z,39.20
2022-12-07T16:11:58.543Z,43.10
2022-12-07T16:14:27.360Z,44.97
2022-12-07T16:16:56.479Z,43.22
2022-12-07T16:19:25.914Z,39.67
2022-12-07T16:21:54.964Z,47.55
2022-12-07T16:24:23.772Z,44.03
2022-12-07T16:26:53.065Z,49.88
2022-12-07T16:29:22.550Z,43.92
2022-12-07T16:31:51.991Z,46.95
2022-12-07T16:34:21.054Z,43.40
2022-12-07T16:37:06.130Z,44.35
2022-12-07T16:39:36.270Z,40.85
2022-12-07T16:42:05.230Z,37.72
2022-12-07T16:44:34.637Z,35.35
2022-12-07T16:47:03.599Z,32.67
2022-12-07T16:49:32.546Z,31.00
2022-12-07T16:52:19.500Z,28.95
2022-12-07T16:54:49.708Z,27.70
2022-12-07T16:57:23.079Z,29.35
2022-12-07T16:59:53.554Z,29.75
2022-12-07T17:02:22.853Z,30.42
2022-12-07T17:04:53.289Z,31.48
2022-12-07T17:07:22.579Z,32.47
2022-12-07T17:09:51.907Z,37.28
2022-12-07T17:12:20.792Z,39.53
2022-12-07T17:15:24.875Z,36.00
2022-12-07T17:18:00.154Z,36.83
2022-12-07T17:20:29.627Z,39.00
2022-12-07T17:22:58.977Z,38.47
2022-12-07T17:25:28.370Z,34.65
2022-12-07T17:27:57.196Z,36.67
2022-12-07T17:30:26.411Z,36.53
2022-12-07T17:32:55.312Z,39.08
2022-12-07T17:35:24.629Z,36.90
2022-12-07T17:37:53.398Z,34.30
2022-12-07T17:40:22.150Z,38.65
2022-12-07T17:42:52.069Z,34.72
2022-12-07T17:45:21.386Z,40.75
2022-12-07T17:47:50.703Z,37.22
2022-12-07T17:50:40.334Z,37.78
2022-12-07T17:53:11.716Z,37.55
2022-12-07T17:56:12.108Z,36.90
2022-12-07T17:58:31.300Z,38.03
2022-12-07T18:01:00.304Z,42.95
2022-12-07T18:03:29.259Z,41.63
2022-12-07T18:05:58.048Z,45.40
2022-12-07T18:08:27.451Z,47.65
2022-12-07T18:11:01.202Z,46.25
2022-12-07T18:13:39.534Z,41.10
2022-12-07T18:16:19.774Z,46.45
2022-12-07T18:18:52.678Z,49.65
2022-12-07T18:21:24.099Z,44.03
2022-12-07T18:23:56.563Z,45.83
2022-12-07T18:26:26.371Z,45.80
2022-12-07T18:28:55.556Z,47.05
2022-12-07T18:31:26.131Z,44.80
2022-12-07T18:33:57.251Z,47.92
2022-12-07T18:36:26.556Z,53.80
2022-12-07T18:38:55.859Z,50.97
2022-12-07T18:41:24.593Z,46.13
2022-12-07T18:43:53.380Z,47.45
2022-12-07T18:46:22.255Z,49.80
2022-12-07T18:48:52.854Z,46.08
2022-12-07T18:51:21.702Z,45.80
2022-12-07T18:53:50.577Z,52.08
2022-12-07T18:56:24.140Z,41.88
2022-12-07T18:59:16.420Z,44.55
2022-12-07T19:01:48.384Z,42.08
2022-12-07T19:04:17.542Z,42.58
2022-12-07T19:06:47.580Z,42.08
2022-12-07T19:09:17.268Z,40.60
2022-12-07T19:11:52.850Z,36.22
2022-12-07T19:14:22.378Z,39.38
2022-12-07T19:16:53.019Z,41.25
2022-12-07T19:19:24.482Z,35.40
2022-12-07T19:21:53.475Z,42.53
2022-12-07T19:24:23.863Z,38.25
2022-12-07T19:26:54.221Z,42.97
2022-12-07T19:29:23.175Z,40.17
2022-12-07T19:31:52.003Z,36.88
2022-12-07T19:34:20.768Z,37.70
2022-12-07T19:36:49.651Z,38.50
2022-12-07T19:39:18.972Z,34.13
2022-12-07T19:41:48.460Z,31.77
2022-12-07T19:44:18.791Z,36.00
2022-12-07T19:46:50.791Z,34.95
2022-12-07T19:49:20.914Z,35.17
2022-12-07T19:51:51.483Z,30.65
2022-12-07T19:54:22.286Z,29.58
2022-12-07T19:56:52.126Z,29.58
2022-12-07T19:59:23.135Z,28.52
2022-12-07T20:01:52.142Z,27.85
2022-12-07T20:04:23.016Z,26.27
2022-12-07T20:06:53.883Z,28.20
2022-12-07T20:09:23.449Z,26.45
2022-12-07T20:12:11.084Z,23.45
2022-12-07T20:14:40.452Z,25.33
2022-12-07T20:17:09.765Z,24.73
2022-12-07T20:19:39.258Z,25.23
2022-12-07T20:22:07.960Z,23.60
2022-12-07T20:24:37.289Z,23.58
2022-12-07T20:27:06.317Z,27.25
2022-12-07T20:29:35.583Z,23.92
2022-12-07T20:32:05.484Z,24.75
2022-12-07T20:34:34.844Z,24.63
2022-12-07T20:37:04.173Z,25.48
2022-12-07T20:39:34.366Z,22.33
2022-12-07T20:42:21.640Z,20.20
2022-12-07T20:44:51.647Z,24.58
2022-12-07T20:47:20.940Z,21.33
2022-12-07T20:49:50.583Z,20.42
2022-12-07T20:52:21.746Z,21.52
2022-12-07T20:54:50.851Z,20.38
2022-12-07T20:57:20.192Z,20.10
2022-12-07T20:59:49.439Z,19.63
2022-12-07T21:02:18.384Z,20.02
2022-12-07T21:04:47.170Z,16.88
2022-12-07T21:07:16.391Z,19.83
2022-12-07T21:09:46.911Z,18.05
2022-12-07T21:12:16.971Z,16.15
2022-12-07T21:14:46.328Z,18.65
2022-12-07T21:17:15.326Z,16.88
2022-12-07T21:19:44.107Z,18.15
2022-12-07T21:22:13.379Z,15.85
2022-12-07T21:24:42.834Z,18.00
2022-12-07T21:27:11.642Z,16.30
2022-12-07T21:29:44.385Z,18.15
2022-12-07T21:32:15.102Z,16.67
2022-12-07T21:34:44.542Z,20.02
2022-12-07T21:37:13.322Z,19.40
2022-12-07T21:39:43.218Z,18.73
2022-12-07T21:42:12.066Z,16.95
2022-12-07T21:44:41.286Z,20.50
2022-12-07T21:47:10.523Z,15.80
2022-12-07T21:49:39.899Z,16.33
2022-12-07T21:52:09.550Z,18.02
2022-12-07T21:54:38.519Z,15.65
2022-12-07T21:57:07.254Z,22.80
2022-12-07T21:59:36.449Z,19.13
2022-12-07T22:02:05.322Z,19.15
2022-12-07T22:04:34.171Z,17.30
2022-12-07T22:07:02.825Z,17.90
2022-12-07T22:09:32.037Z,19.15
2022-12-07T22:12:04.296Z,21.95
2022-12-07T22:14:51.681Z,17.27
2022-12-07T22:17:20.383Z,19.65
2022-12-07T22:19:49.812Z,20.42
2022-12-07T22:22:18.624Z,19.05
2022-12-07T22:24:48.959Z,19.83
2022-12-07T22:27:17.957Z,17.75
2022-12-07T22:29:47.127Z,20.40
2022-12-07T22:32:46.666Z,18.30
2022-12-07T22:35:06.363Z,20.60
2022-12-07T22:37:35.338Z,18.33
2022-12-07T22:40:05.837Z,22.48
2022-12-07T22:42:34.888Z,19.88
2022-12-07T22:45:04.594Z,19.38
2022-12-07T22:47:33.976Z,17.50
2022-12-07T22:50:03.288Z,16.88
2022-12-07T22:52:32.629Z,19.65
2022-12-07T22:55:02.238Z,17.75
2022-12-07T22:57:31.780Z,18.30
2022-12-07T23:00:00.521Z,13.00
2022-12-07T23:02:29.264Z,18.17
2022-12-07T23:04:57.953Z,13.63
2022-12-07T23:07:27.120Z,15.10
2022-12-07T23:09:56.413Z,16.00
2022-12-07T23:12:44.088Z,15.13
2022-12-07T23:15:13.198Z,16.25
2022-12-07T23:17:42.413Z,16.33
2022-12-07T23:20:12.924Z,14.45
2022-12-07T23:22:42.563Z,17.27
2022-12-07T23:25:12.031Z,15.48
2022-12-07T23:27:40.845Z,15.77
2022-12-07T23:30:10.151Z,15.88
2022-12-07T23:32:39.339Z,15.68
2022-12-07T23:35:08.923Z,17.23
2022-12-07T23:37:37.698Z,14.30
2022-12-07T23:40:07.303Z,11.43
2022-12-07T23:42:36.694Z,11.77
2022-12-07T23:45:06.095Z,15.32
2022-12-07T23:47:35.163Z,14.55
2022-12-07T23:50:05.417Z,18.38
2022-12-07T23:52:34.724Z,18.13
2022-12-07T23:55:03.914Z,16.83
2022-12-07T23:57:34.296Z,18.55
